createdAt,value
2023-03-24T00:01:37.721Z,5.07
2023-03-24T00:04:04.844Z,4.30
2023-03-24T00:06:34.354Z,4.82
2023-03-24T00:09:03.914Z,13.45
2023-03-24T00:11:34.214Z,4.38
2023-03-24T00:14:02.573Z,4.32
2023-03-24T00:16:29.684Z,3.97
2023-03-24T00:18:56.809Z,4.95
2023-03-24T00:21:25.314Z,5.95
2023-03-24T00:23:54.337Z,6.30
2023-03-24T00:26:21.600Z,3.70
2023-03-24T00:28:49.587Z,5.38
2023-03-24T00:31:17.945Z,4.70
2023-03-24T00:33:50.670Z,4.68
2023-03-24T00:36:20.812Z,4.95
2023-03-24T00:38:48.410Z,4.85
2023-03-24T00:41:17.886Z,4.85
2023-03-24T00:43:44.732Z,4.95
2023-03-24T00:46:28.473Z,5.78
2023-03-24T00:49:05.777Z,5.18
2023-03-24T00:51:42.928Z,4.20
2023-03-24T00:54:12.465Z,4.80
2023-03-24T00:56:40.526Z,4.40
2023-03-24T00:59:09.640Z,4.10
2023-03-24T01:01:41.036Z,4.32
2023-03-24T01:04:09.990Z,4.30
2023-03-24T01:06:38.100Z,4.22
2023-03-24T01:09:05.963Z,4.80
2023-03-24T01:11:38.419Z,4.32
2023-03-24T01:14:05.812Z,4.03
2023-03-24T01:16:32.579Z,3.50
2023-03-24T01:18:59.445Z,4.30
2023-03-24T01:21:26.271Z,4.60
2023-03-24T01:23:54.250Z,4.30
2023-03-24T01:26:21.012Z,4.63
2023-03-24T01:28:47.690Z,4.40
2023-03-24T01:31:14.581Z,4.57
2023-03-24T01:33:41.399Z,4.38
2023-03-24T01:36:08.952Z,4.05
2023-03-24T01:38:36.346Z,4.80
2023-03-24T01:41:05.836Z,5.20
2023-03-24T01:43:34.429Z,4.50
2023-03-24T01:46:21.787Z,4.50
2023-03-24T01:48:58.910Z,4.60
2023-03-24T01:51:39.636Z,4.63
2023-03-24T01:54:23.621Z,5.00
2023-03-24T01:57:02.584Z,4.40
2023-03-24T01:59:32.152Z,4.90
2023-03-24T02:02:10.216Z,5.22
2023-03-24T02:04:50.260Z,5.13
2023-03-24T02:07:38.196Z,4.90
2023-03-24T02:10:09.320Z,5.10
2023-03-24T02:12:39.735Z,5.80
2023-03-24T02:15:09.193Z,5.50
2023-03-24T02:18:01.370Z,6.20
2023-03-24T02:20:28.137Z,5.72
2023-03-24T02:23:14.546Z,6.82
2023-03-24T02:25:41.884Z,6.53
2023-03-24T02:28:23.632Z,6.90
2023-03-24T02:31:24.061Z,6.68
2023-03-24T02:34:25.448Z,6.90
2023-03-24T02:37:28.010Z,6.63
2023-03-24T02:40:11.462Z,6.05
2023-03-24T02:42:51.037Z,6.28
2023-03-24T02:45:50.221Z,5.47
2023-03-24T02:48:31.895Z,5.97
2023-03-24T02:51:26.596Z,5.40
2023-03-24T02:54:21.154Z,5.88
2023-03-24T02:56:56.066Z,5.95
2023-03-24T02:59:57.044Z,6.40
2023-03-24T03:02:48.762Z,7.15
2023-03-24T03:05:23.090Z,6.22
2023-03-24T03:07:52.553Z,7.97
2023-03-24T03:10:28.439Z,8.95
2023-03-24T03:12:58.169Z,8.85
2023-03-24T03:15:29.433Z,8.27
2023-03-24T03:18:16.515Z,10.18
2023-03-24T03:20:50.477Z,10.20
2023-03-24T03:23:25.493Z,8.40
2023-03-24T03:25:57.125Z,9.55
2023-03-24T03:28:29.731Z,10.02
2023-03-24T03:31:01.098Z,11.05
2023-03-24T03:33:36.993Z,10.70
2023-03-24T03:36:26.393Z,10.07
2023-03-24T03:39:11.840Z,11.05
2023-03-24T03:41:40.226Z,11.85
2023-03-24T03:44:07.399Z,10.88
2023-03-24T03:46:36.079Z,11.63
2023-03-24T03:49:07.569Z,10.65
2023-03-24T03:51:35.323Z,11.32
2023-03-24T03:54:11.456Z,12.07
2023-03-24T03:56:39.036Z,11.05
2023-03-24T03:59:34.562Z,11.50
2023-03-24T04:02:30.922Z,9.80
2023-03-24T04:05:18.792Z,9.90
2023-03-24T04:08:17.416Z,11.23
2023-03-24T04:11:10.242Z,10.35
2023-03-24T04:14:02.465Z,11.45
2023-03-24T04:17:07.823Z,10.15
2023-03-24T04:20:05.470Z,11.38
2023-03-24T04:22:54.050Z,11.30
2023-03-24T04:26:05.942Z,10.50
2023-03-24T04:28:47.856Z,10.93
2023-03-24T04:31:37.823Z,10.85
2023-03-24T04:34:15.531Z,10.02
2023-03-24T04:36:50.256Z,11.27
2023-03-24T04:39:28.165Z,12.45
2023-03-24T04:41:59.309Z,10.70
2023-03-24T04:44:30.044Z,11.90
2023-03-24T04:47:16.697Z,10.13
2023-03-24T04:50:02.122Z,10.02
2023-03-24T04:52:29.348Z,10.50
2023-03-24T04:54:56.240Z,10.00
2023-03-24T04:57:23.284Z,10.80
2023-03-24T04:59:57.075Z,10.15
2023-03-24T05:02:23.824Z,8.77
2023-03-24T05:05:05.903Z,9.80
2023-03-24T05:07:42.384Z,9.30
2023-03-24T05:10:15.395Z,7.97
2023-03-24T05:12:48.803Z,8.70
2023-03-24T05:15:38.534Z,9.00
2023-03-24T05:18:20.165Z,6.32
2023-03-24T05:20:46.838Z,6.63
2023-03-24T05:23:18.414Z,5.55
2023-03-24T05:25:49.393Z,6.43
2023-03-24T05:28:17.024Z,6.82
2023-03-24T05:30:44.025Z,6.97
2023-03-24T05:33:33.916Z,6.13
2023-03-24T05:36:01.170Z,6.47
2023-03-24T05:38:28.049Z,6.20
2023-03-24T05:40:58.028Z,7.13
2023-03-24T05:43:27.987Z,6.60
2023-03-24T05:46:07.551Z,6.32
2023-03-24T05:48:34.833Z,7.80
2023-03-24T05:51:13.945Z,7.60
2023-03-24T05:53:41.084Z,8.27
2023-03-24T05:56:13.474Z,7.95
2023-03-24T05:58:55.729Z,6.82
2023-03-24T06:01:28.743Z,6.78
2023-03-24T06:04:02.646Z,5.70
2023-03-24T06:06:29.416Z,6.68
2023-03-24T06:08:58.716Z,6.63
2023-03-24T06:11:26.718Z,5.50
2023-03-24T06:16:38.399Z,2.97
2023-03-24T06:19:07.204Z,3.75
2023-03-24T06:21:51.773Z,2.95
2023-03-24T06:24:22.632Z,2.40
2023-03-24T06:26:50.324Z,2.92
2023-03-24T06:29:17.970Z,2.72
2023-03-24T06:31:46.120Z,2.92
2023-03-24T06:34:12.847Z,3.00
2023-03-24T06:36:40.790Z,3.72
2023-03-24T06:39:08.593Z,4.38
2023-03-24T06:41:36.984Z,5.05
2023-03-24T06:44:03.759Z,5.72
2023-03-24T06:46:30.858Z,5.40
2023-03-24T06:48:57.907Z,6.15
2023-03-24T06:51:24.591Z,5.95
2023-03-24T06:53:51.734Z,6.43
2023-03-24T06:56:20.098Z,6.22
2023-03-24T06:58:52.871Z,6.50
2023-03-24T07:01:29.744Z,6.22
2023-03-24T07:03:59.705Z,5.90
2023-03-24T07:06:43.129Z,7.35
2023-03-24T07:09:13.993Z,7.00
2023-03-24T07:11:41.300Z,6.80
2023-03-24T07:14:09.580Z,6.93
2023-03-24T07:16:36.759Z,7.20
2023-03-24T07:19:32.134Z,7.05
2023-03-24T07:22:40.107Z,8.45
2023-03-24T07:25:30.733Z,9.13
2023-03-24T07:28:15.852Z,9.73
2023-03-24T07:30:42.654Z,10.32
2023-03-24T07:33:12.300Z,10.65
2023-03-24T07:35:41.604Z,10.38
2023-03-24T07:38:10.075Z,11.38
2023-03-24T07:40:36.979Z,10.75
2023-03-24T07:43:07.732Z,11.13
2023-03-24T07:46:03.651Z,13.20
2023-03-24T07:48:32.921Z,12.52
2023-03-24T07:50:59.645Z,11.50
2023-03-24T07:53:55.541Z,12.82
2023-03-24T07:56:48.439Z,10.38
2023-03-24T07:59:15.435Z,9.82
2023-03-24T08:02:02.200Z,10.95
2023-03-24T08:04:42.975Z,13.10
2023-03-24T08:07:37.041Z,12.90
2023-03-24T08:10:03.926Z,11.60
2023-03-24T08:12:30.601Z,10.52
2023-03-24T08:14:57.291Z,11.68
2023-03-24T08:17:23.943Z,12.25
2023-03-24T08:20:00.073Z,15.35
2023-03-24T08:22:27.967Z,14.93
2023-03-24T08:24:54.589Z,17.00
2023-03-24T08:27:21.352Z,17.25
2023-03-24T08:29:48.029Z,18.67
2023-03-24T08:32:14.655Z,18.83
2023-03-24T08:34:41.368Z,21.67
2023-03-24T08:37:11.958Z,20.65
2023-03-24T08:39:38.669Z,22.00
2023-03-24T08:42:05.515Z,23.20
2023-03-24T08:44:32.986Z,22.65
2023-03-24T08:47:01.367Z,23.45
2023-03-24T08:49:28.135Z,23.50
2023-03-24T08:51:55.349Z,22.63
2023-03-24T08:54:23.756Z,23.98
2023-03-24T08:56:51.143Z,21.95
2023-03-24T08:59:18.291Z,24.25
2023-03-24T09:01:45.656Z,22.67
2023-03-24T09:04:12.835Z,23.98
2023-03-24T09:06:39.678Z,24.27
2023-03-24T09:09:08.098Z,24.52
2023-03-24T09:11:36.689Z,25.02
2023-03-24T09:14:04.746Z,23.08
2023-03-24T09:16:31.610Z,24.38
2023-03-24T09:18:58.240Z,26.20
2023-03-24T09:21:25.327Z,25.08
2023-03-24T09:23:51.952Z,24.52
2023-03-24T09:26:18.600Z,24.95
2023-03-24T09:28:45.346Z,24.75
2023-03-24T09:31:12.081Z,24.65
2023-03-24T09:33:38.740Z,22.75
2023-03-24T09:36:05.919Z,24.58
2023-03-24T09:38:34.758Z,24.27
2023-03-24T09:41:02.910Z,25.95
2023-03-24T09:43:41.792Z,25.38
2023-03-24T09:46:36.554Z,27.75
2023-03-24T09:49:04.529Z,26.40
2023-03-24T09:51:39.864Z,26.38
2023-03-24T09:54:27.197Z,25.60
2023-03-24T09:56:55.782Z,28.85
2023-03-24T09:59:41.264Z,26.67
2023-03-24T10:04:46.343Z,25.70
2023-03-24T10:07:33.352Z,24.65
2023-03-24T10:10:01.221Z,25.50
2023-03-24T10:12:35.947Z,23.88
2023-03-24T10:15:21.713Z,27.55
2023-03-24T10:18:12.967Z,22.88
2023-03-24T10:20:51.272Z,23.08
2023-03-24T10:23:40.541Z,24.98
2023-03-24T10:26:31.434Z,23.33
2023-03-24T10:29:14.540Z,24.20
2023-03-24T10:31:42.854Z,26.38
2023-03-24T10:34:13.009Z,27.30
2023-03-24T10:36:41.109Z,24.88
2023-03-24T10:39:20.865Z,24.75
2023-03-24T10:41:53.193Z,27.30
2023-03-24T10:44:21.170Z,29.25
2023-03-24T10:46:52.363Z,29.40
2023-03-24T10:49:21.358Z,27.23
2023-03-24T10:52:02.056Z,27.75
2023-03-24T10:54:30.434Z,26.80
2023-03-24T10:57:00.371Z,27.73
2023-03-24T10:59:54.120Z,24.70
2023-03-24T11:02:26.780Z,23.73
2023-03-24T11:05:13.302Z,24.15
2023-03-24T11:07:44.393Z,24.58
2023-03-24T11:10:11.055Z,24.58
2023-03-24T11:12:40.055Z,24.42
2023-03-24T11:15:23.910Z,22.98
2023-03-24T11:17:58.448Z,23.58
2023-03-24T11:20:35.371Z,22.85
2023-03-24T11:23:26.552Z,23.08
2023-03-24T11:26:22.533Z,23.90
2023-03-24T11:28:55.925Z,23.10
2023-03-24T11:31:35.039Z,27.90
2023-03-24T11:34:16.770Z,24.80
2023-03-24T11:36:48.510Z,25.63
2023-03-24T11:39:24.539Z,23.70
2023-03-24T11:42:02.723Z,30.58
2023-03-24T11:44:38.615Z,24.75
2023-03-24T11:47:24.250Z,25.55
2023-03-24T11:50:09.186Z,27.20
2023-03-24T11:53:06.028Z,27.77
2023-03-24T11:55:48.463Z,26.58
2023-03-24T11:58:36.408Z,27.08
2023-03-24T12:01:27.284Z,29.15
2023-03-24T12:04:09.054Z,29.70
2023-03-24T12:06:35.642Z,28.67
2023-03-24T12:09:32.504Z,27.52
2023-03-24T12:12:28.953Z,25.58
2023-03-24T12:15:28.663Z,26.95
2023-03-24T12:18:16.847Z,30.45
2023-03-24T12:21:04.472Z,29.73
2023-03-24T12:23:59.104Z,28.95
2023-03-24T12:26:30.671Z,31.40
2023-03-24T12:28:58.836Z,30.38
2023-03-24T12:31:43.664Z,30.35
2023-03-24T12:34:13.720Z,29.10
2023-03-24T12:36:57.028Z,28.25
2023-03-24T12:39:35.459Z,28.70
2023-03-24T12:42:10.451Z,29.45
2023-03-24T12:44:50.867Z,27.63
2023-03-24T12:47:55.277Z,30.83
2023-03-24T12:50:38.148Z,28.75
2023-03-24T12:53:29.866Z,28.88
2023-03-24T12:56:02.967Z,30.60
2023-03-24T12:58:29.889Z,27.23
2023-03-24T13:01:07.478Z,27.10
2023-03-24T13:03:43.672Z,26.38
2023-03-24T13:06:20.825Z,26.83
2023-03-24T13:09:03.336Z,27.67
2023-03-24T13:11:37.888Z,26.10
2023-03-24T13:14:11.005Z,26.88
2023-03-24T13:16:39.209Z,29.10
2023-03-24T13:19:19.033Z,28.75
2023-03-24T13:21:46.649Z,25.50
2023-03-24T13:24:15.625Z,27.15
2023-03-24T13:26:57.990Z,23.33
2023-03-24T13:29:50.079Z,27.95
2023-03-24T13:32:28.165Z,27.23
2023-03-24T13:35:01.095Z,26.77
2023-03-24T13:37:37.953Z,26.77
2023-03-24T13:40:19.534Z,26.50
2023-03-24T13:42:52.192Z,28.20
2023-03-24T13:45:26.653Z,27.15
2023-03-24T13:48:17.443Z,24.90
2023-03-24T13:50:59.660Z,28.35
2023-03-24T13:53:51.027Z,26.52
2023-03-24T13:56:37.091Z,26.67
2023-03-24T13:59:24.689Z,27.55
2023-03-24T14:02:16.400Z,28.98
2023-03-24T14:05:03.675Z,30.77
2023-03-24T14:07:39.420Z,31.05
2023-03-24T14:10:15.438Z,28.30
2023-03-24T14:12:58.210Z,27.05
2023-03-24T14:15:28.467Z,27.48
2023-03-24T14:17:56.842Z,26.92
2023-03-24T14:20:32.448Z,27.23
2023-03-24T14:22:59.344Z,26.45
2023-03-24T14:25:36.728Z,27.58
2023-03-24T14:28:22.946Z,27.90
2023-03-24T14:31:14.523Z,28.70
2023-03-24T14:33:53.842Z,27.00
2023-03-24T14:36:25.189Z,29.52
2023-03-24T14:38:52.607Z,30.00
2023-03-24T14:41:28.944Z,30.75
2023-03-24T14:43:58.731Z,30.70
2023-03-24T14:46:41.309Z,29.90
2023-03-24T14:49:29.127Z,26.85
2023-03-24T14:52:12.751Z,25.52
2023-03-24T14:54:45.698Z,23.38
2023-03-24T14:57:21.133Z,23.10
2023-03-24T14:59:58.032Z,23.45
2023-03-24T15:02:28.194Z,24.60
2023-03-24T15:05:13.766Z,24.40
2023-03-24T15:07:41.505Z,26.95
2023-03-24T15:10:16.090Z,26.75
2023-03-24T15:15:23.060Z,27.95
2023-03-24T15:17:51.532Z,26.85
2023-03-24T15:20:35.589Z,27.48
2023-03-24T15:23:16.156Z,27.77
2023-03-24T15:25:43.044Z,26.48
2023-03-24T15:28:21.991Z,26.35
2023-03-24T15:30:50.374Z,25.38
2023-03-24T15:33:21.712Z,27.58
2023-03-24T15:35:56.275Z,29.30
2023-03-24T15:38:31.743Z,27.80
2023-03-24T15:41:05.588Z,25.70
2023-03-24T15:43:32.339Z,26.95
2023-03-24T15:46:11.707Z,29.05
2023-03-24T15:48:39.769Z,24.67
2023-03-24T15:51:09.147Z,23.77
2023-03-24T15:53:49.067Z,24.20
2023-03-24T15:56:19.819Z,24.98
2023-03-24T15:58:50.257Z,25.40
2023-03-24T16:01:25.506Z,25.92
2023-03-24T16:03:53.538Z,24.15
2023-03-24T16:06:33.461Z,24.10
2023-03-24T16:09:01.972Z,22.38
2023-03-24T16:11:29.158Z,14.75
2023-03-24T16:13:57.736Z,13.30
2023-03-24T16:16:30.991Z,11.50
2023-03-24T16:18:59.171Z,9.70
2023-03-24T16:21:28.681Z,10.15
2023-03-24T16:23:57.292Z,8.65
2023-03-24T16:26:30.383Z,10.50
2023-03-24T16:29:14.444Z,10.18
2023-03-24T16:31:41.155Z,7.47
2023-03-24T16:34:07.768Z,8.55
2023-03-24T16:36:34.590Z,7.82
2023-03-24T16:39:01.640Z,5.95
2023-03-24T16:41:28.871Z,6.45
2023-03-24T16:43:55.585Z,6.63
2023-03-24T16:46:25.196Z,7.90
2023-03-24T16:48:52.467Z,6.88
2023-03-24T16:51:19.268Z,7.57
2023-03-24T16:53:46.950Z,8.70
2023-03-24T16:56:16.738Z,8.80
2023-03-24T16:58:43.631Z,8.30
2023-03-24T17:01:26.548Z,7.97
2023-03-24T17:03:54.560Z,9.30
2023-03-24T17:06:25.590Z,9.82
2023-03-24T17:08:52.296Z,10.50
2023-03-24T17:11:37.869Z,9.68
2023-03-24T17:14:08.201Z,9.45
2023-03-24T17:16:37.114Z,8.38
2023-03-24T17:19:07.127Z,10.38
2023-03-24T17:22:05.774Z,23.75
2023-03-24T17:24:35.597Z,16.77
2023-03-24T17:27:03.489Z,11.57
2023-03-24T17:29:30.257Z,8.75
2023-03-24T17:31:57.317Z,7.80
2023-03-24T17:34:23.896Z,8.38
2023-03-24T17:36:51.616Z,8.77
2023-03-24T17:39:19.771Z,9.98
2023-03-24T17:41:46.657Z,9.25
2023-03-24T17:44:13.538Z,8.77
2023-03-24T17:46:40.354Z,8.20
2023-03-24T17:49:07.096Z,9.48
2023-03-24T17:51:33.781Z,18.30
2023-03-24T17:54:00.562Z,10.27
2023-03-24T17:56:27.223Z,8.75
2023-03-24T17:58:54.855Z,10.10
2023-03-24T18:01:25.511Z,9.18
2023-03-24T18:03:52.175Z,8.48
2023-03-24T18:06:18.860Z,6.53
2023-03-24T18:08:45.701Z,7.50
2023-03-24T18:11:16.460Z,6.55
2023-03-24T18:13:43.422Z,6.90
2023-03-24T18:16:20.732Z,5.43
2023-03-24T18:18:49.507Z,4.20
2023-03-24T18:21:16.403Z,6.63
2023-03-24T18:23:43.106Z,6.10
2023-03-24T18:26:09.885Z,9.45
2023-03-24T18:28:38.488Z,6.93
2023-03-24T18:31:16.079Z,5.15
2023-03-24T18:33:45.655Z,6.90
2023-03-24T18:36:16.377Z,6.07
2023-03-24T18:38:43.556Z,6.63
2023-03-24T18:41:12.760Z,3.72
2023-03-24T18:43:44.813Z,4.88
2023-03-24T18:46:11.617Z,3.97
2023-03-24T18:48:41.333Z,4.28
2023-03-24T18:51:08.042Z,4.70
2023-03-24T18:53:35.172Z,5.22
2023-03-24T18:56:03.695Z,5.13
2023-03-24T18:58:30.479Z,5.78
2023-03-24T19:00:58.239Z,4.25
2023-03-24T19:03:26.280Z,4.05
2023-03-24T19:05:53.094Z,3.83
2023-03-24T19:08:20.859Z,4.25
2023-03-24T19:10:48.533Z,4.22
2023-03-24T19:13:16.795Z,4.28
2023-03-24T19:15:47.743Z,4.00
2023-03-24T19:18:14.744Z,3.65
2023-03-24T19:20:41.920Z,4.72
2023-03-24T19:23:08.740Z,4.00
2023-03-24T19:25:35.328Z,5.30
2023-03-24T19:28:02.157Z,3.95
2023-03-24T19:30:29.377Z,5.35
2023-03-24T19:32:56.724Z,4.90
2023-03-24T19:35:23.756Z,3.97
2023-03-24T19:37:50.573Z,4.20
2023-03-24T19:40:17.438Z,4.28
2023-03-24T19:42:44.934Z,4.45
2023-03-24T19:45:14.755Z,3.60
2023-03-24T19:47:43.277Z,4.50
2023-03-24T19:50:10.636Z,4.53
2023-03-24T19:52:37.341Z,5.05
2023-03-24T19:55:06.405Z,4.32
2023-03-24T19:57:33.548Z,4.18
2023-03-24T20:00:00.494Z,5.30
2023-03-24T20:02:28.006Z,4.45
2023-03-24T20:04:55.143Z,4.78
2023-03-24T20:07:23.147Z,5.38
2023-03-24T20:09:49.879Z,5.60
2023-03-24T20:12:16.490Z,4.70
2023-03-24T20:14:43.343Z,6.90
2023-03-24T20:17:17.667Z,5.70
2023-03-24T20:19:44.819Z,5.00
2023-03-24T20:22:11.727Z,7.07
2023-03-24T20:24:38.742Z,7.95
2023-03-24T20:27:07.063Z,8.57
2023-03-24T20:29:34.224Z,8.98
2023-03-24T20:32:00.953Z,10.60
2023-03-24T20:34:27.874Z,9.00
2023-03-24T20:36:54.501Z,9.15
2023-03-24T20:39:21.199Z,9.00
2023-03-24T20:41:47.818Z,8.52
2023-03-24T20:44:14.462Z,9.80
2023-03-24T20:46:41.130Z,9.73
2023-03-24T20:49:08.484Z,10.48
2023-03-24T20:51:35.710Z,10.27
2023-03-24T20:54:02.365Z,12.15
2023-03-24T20:56:30.037Z,14.77
2023-03-24T20:58:56.733Z,10.68
2023-03-24T21:01:24.493Z,11.23
2023-03-24T21:03:53.024Z,12.00
2023-03-24T21:06:20.544Z,10.13
2023-03-24T21:08:47.703Z,9.80
2023-03-24T21:11:14.508Z,9.27
2023-03-24T21:13:41.168Z,9.25
2023-03-24T21:16:09.453Z,9.05
2023-03-24T21:18:37.353Z,22.77
2023-03-24T21:21:05.259Z,9.45
2023-03-24T21:23:34.115Z,10.00
2023-03-24T21:26:01.779Z,10.75
2023-03-24T21:28:30.713Z,10.90
2023-03-24T21:30:58.626Z,10.90
2023-03-24T21:33:25.412Z,11.43
2023-03-24T21:35:55.283Z,10.18
2023-03-24T21:38:22.090Z,11.52
2023-03-24T21:40:59.990Z,13.05
2023-03-24T21:43:29.110Z,11.27
2023-03-24T21:45:56.798Z,10.77
2023-03-24T21:48:26.035Z,11.40
2023-03-24T21:50:54.364Z,11.98
2023-03-24T21:53:22.540Z,11.40
2023-03-24T21:56:04.874Z,11.95
2023-03-24T21:58:33.402Z,11.68
2023-03-24T22:01:00.410Z,12.00
2023-03-24T22:03:27.726Z,11.70
2023-03-24T22:05:56.893Z,12.27
2023-03-24T22:08:26.575Z,11.80
2023-03-24T22:11:00.962Z,11.95
2023-03-24T22:13:28.533Z,11.90
2023-03-24T22:15:56.728Z,13.95
2023-03-24T22:18:25.322Z,13.15
2023-03-24T22:20:57.589Z,13.85
2023-03-24T22:23:24.408Z,12.98
2023-03-24T22:25:54.035Z,12.35
2023-03-24T22:28:20.886Z,12.80
2023-03-24T22:30:47.769Z,12.85
2023-03-24T22:33:14.411Z,12.90
2023-03-24T22:35:41.154Z,13.02
2023-03-24T22:38:07.810Z,15.05
2023-03-24T22:40:34.472Z,13.30
2023-03-24T22:43:01.082Z,14.43
2023-03-24T22:45:27.777Z,12.50
2023-03-24T22:47:54.468Z,13.35
2023-03-24T22:50:21.113Z,14.40
2023-03-24T22:52:48.033Z,14.75
2023-03-24T22:55:14.781Z,14.18
2023-03-24T22:57:41.387Z,14.07
2023-03-24T23:00:08.841Z,13.05
2023-03-24T23:02:35.574Z,13.15
2023-03-24T23:05:02.342Z,13.15
2023-03-24T23:07:29.483Z,13.25
2023-03-24T23:09:59.171Z,12.82
2023-03-24T23:12:26.688Z,13.55
2023-03-24T23:14:54.359Z,13.40
2023-03-24T23:17:24.275Z,13.32
2023-03-24T23:19:52.407Z,13.00
2023-03-24T23:22:19.763Z,12.70
2023-03-24T23:24:47.898Z,13.05
2023-03-24T23:27:16.149Z,13.57
2023-03-24T23:29:42.788Z,13.05
2023-03-24T23:32:09.452Z,12.95
2023-03-24T23:34:37.920Z,13.25
2023-03-24T23:37:04.746Z,13.40
2023-03-24T23:39:36.635Z,12.20
2023-03-24T23:42:04.645Z,12.63
2023-03-24T23:44:31.464Z,12.70
2023-03-24T23:46:58.120Z,13.20
2023-03-24T23:49:25.071Z,12.48
2023-03-24T23:51:51.797Z,12.75
2023-03-24T23:54:18.521Z,12.57
2023-03-24T23:56:47.124Z,13.10
2023-03-24T23:59:14.219Z,12.38
